Terminal Aerodrome Forecast
Issued by NWS

Home | Current Version | Previous Version | Text Only | Print | Product List | Glossary On
Versions: 1 2 3 4 5 6 7 8 9 10 11 12 13 14 15 16 17 18 19 20 21 22 23 24 25 26 27 28 29
000
FTUS41 KALY 251400 AAB
TAFPSF
TAF AMD
KPSF 251408Z 2514/2612 27016G30KT P6SM BKN045
     FM252000 27022G42KT P6SM SCT045
     FM252300 28020G30KT P6SM SCT030
     FM260500 29012G20KT P6SM SCT025
     FM261100 29009KT P6SM SCT025=

USA.gov is the U.S. government's official web portal to all federal, state and local government web resources and services.